M I D A S
Marine Information and Data Acquisition System
Tripno 581 of the Zeeleeuw from 2003-09-02 06:28:39 to 2003-09-02 14:26:07
Back to CruiseResearch ActivitiesStationsMapUnderway DataData graphs

EquipmentUnitsComment
TimeDGPSUTC
LatitudeDGPSDM.mWGS84
LongitudeDGPSDM.mWGS84
HeadingGyrodeg 
SOGDGPSknotsSpeed over ground
COGDGPSdegCourse over ground
DepthEcho soundermeters200 kHz
Missing or incorrect values are displayed as -999
Navigation data collected by the RV Zeeleeuw from 2003-09-02 06:28:39 to 2003-09-02 14:26:07
Time Latitude Longitude Heading SOG COG Depth
2003-09-02 06:29:41 51°13.92 2°55.56 341 7.6 336 12.4
2003-09-02 06:30:41 51°14.04 2°55.48 341.7 8 337 12.2
2003-09-02 06:31:41 51°14.16 2°55.39 335.3 8.1 330 12.2
2003-09-02 06:32:41 51°14.27 2°55.23 318.2 10.1 312 12.6
2003-09-02 06:33:41 51°14.39 2°55.02 318.3 10.8 312 11.7
2003-09-02 06:34:41 51°14.55 2°54.86 341.6 11.9 336 11.2
2003-09-02 06:35:41 51°14.74 2°54.78 349.3 12.3 346 10.5
2003-09-02 06:36:41 51°14.95 2°54.7 355.1 13 352 10.2
2003-09-02 06:37:41 51°15.17 2°54.76 22.9 13.2 20 9.5
2003-09-02 06:38:41 51°15.35 2°54.95 40.6 13 34 9.4
2003-09-02 06:39:41 51°15.51 2°55.17 52.9 13.2 48 9.8
2003-09-02 06:40:41 51°15.66 2°55.43 51.7 13.2 46 10
2003-09-02 06:41:41 51°15.81 2°55.69 56.1 13.1 51 10.4
2003-09-02 06:42:41 51°15.94 2°55.97 61 13.3 57 10.1
2003-09-02 06:43:41 51°16.07 2°56.26 60.7 13.4 55 10.4
2003-09-02 06:44:41 51°16.19 2°56.56 61.3 13.6 56 10
2003-09-02 06:45:41 51°16.32 2°56.86 61.6 13.8 56 10.3
2003-09-02 06:46:41 51°16.45 2°57.16 61.2 13.7 57 10.9
2003-09-02 06:47:41 51°16.57 2°57.46 63.5 13.7 57 10.5
2003-09-02 06:48:41 51°16.69 2°57.77 63.1 13.7 59 10.5
2003-09-02 06:49:41 51°16.81 2°58.08 64.4 13.7 58 10.6
2003-09-02 06:50:41 51°16.93 2°58.39 63.5 13.5 59 10.8
2003-09-02 06:51:41 51°17.05 2°58.69 64.1 13.4 59 10.5
2003-09-02 06:52:41 51°17.17 2°58.99 62.8 13.5 58 10
2003-09-02 06:53:41 51°17.29 2°59.3 63.9 13.5 60 10.1
2003-09-02 06:54:41 51°17.41 2°59.6 62.7 13.5 58 9.6
2003-09-02 06:55:41 51°17.53 2°59.91 62.8 13.6 57 10.4
2003-09-02 06:56:41 51°17.65 3°0.22 63.4 13.7 57 9.8
2003-09-02 06:57:41 51°17.77 3°0.52 63.2 13.6 58 9.6
2003-09-02 06:58:41 51°17.89 3°0.83 63.5 13.6 58 9.5
2003-09-02 06:59:41 51°18.01 3°1.13 63.9 13.7 58 10.2
2003-09-02 07:00:41 51°18.13 3°1.43 63.8 13.4 58 9.6
2003-09-02 07:01:41 51°18.25 3°1.74 63.7 13.4 57 9.2
2003-09-02 07:02:41 51°18.37 3°2.04 63.1 13.7 57 9.1
2003-09-02 07:03:41 51°18.5 3°2.33 57.3 13.4 53 8.5
2003-09-02 07:04:41 51°18.64 3°2.61 57 13.3 52 8.6
2003-09-02 07:05:41 51°18.77 3°2.9 58.6 13.4 53 8.2
2003-09-02 07:06:41 51°18.91 3°3.18 59.1 13.5 53 8.6
2003-09-02 07:07:41 51°19.04 3°3.46 60 13.4 55 8.7
2003-09-02 07:08:41 51°19.18 3°3.74 59 13.2 54 8.3
2003-09-02 07:09:41 51°19.32 3°4.02 57.5 13.2 51 8.3
2003-09-02 07:10:41 51°19.45 3°4.3 57.4 13.3 52 8.9
2003-09-02 07:11:41 51°19.58 3°4.58 59.4 13.2 54 8.2
2003-09-02 07:12:41 51°19.72 3°4.86 57.5 13.2 52 8.4
2003-09-02 07:13:41 51°19.85 3°5.14 58.5 13.2 54 8.7
2003-09-02 07:14:41 51°19.98 3°5.42 58.5 13.1 52 8.3
2003-09-02 07:15:41 51°20.11 3°5.7 58 13.1 52 8.3
2003-09-02 07:16:41 51°20.25 3°5.97 60 13.2 53 8.2
2003-09-02 07:17:41 51°20.38 3°6.26 57.7 13.3 51 8.3
2003-09-02 07:18:41 51°20.51 3°6.54 58.5 13.3 54 8.1
2003-09-02 07:19:41 51°20.64 3°6.81 59.5 13.1 53 7.6
2003-09-02 07:20:41 51°20.77 3°7.09 58.7 13 51 8
2003-09-02 07:21:41 51°20.91 3°7.37 58.9 13.2 53 8
2003-09-02 07:22:41 51°21.03 3°7.66 65.2 13.2 61 8.3
2003-09-02 07:23:41 51°21.14 3°7.96 68.2 13.1 62 8.5
2003-09-02 07:24:41 51°21.24 3°8.27 66.9 12.9 63 8.9
2003-09-02 07:25:41 51°21.34 3°8.57 66.4 12.8 63 9.3
2003-09-02 07:26:41 51°21.44 3°8.87 66.7 12.8 61 10.1
2003-09-02 07:27:41 51°21.55 3°9.17 65.7 12.9 59 11
2003-09-02 07:28:41 51°21.64 3°9.48 66.9 12.6 63 12
2003-09-02 07:29:41 51°21.74 3°9.77 66.5 12.6 59 12.4
2003-09-02 07:30:41 51°21.84 3°10.07 68.4 12.5 64 13.9
2003-09-02 07:31:41 51°21.93 3°10.36 66.9 12.1 62 14.8
2003-09-02 07:32:41 51°22.03 3°10.63 65.3 11.4 59 15.9
2003-09-02 07:33:41 51°22.12 3°10.88 67.7 10.9 60 18.7
2003-09-02 07:34:41 51°22.22 3°11.14 70.3 11.6 62 17.1
2003-09-02 07:35:39 51°22.3 3°11.42 75.6 11.9 71 16.4
2003-09-02 07:36:41 51°22.35 3°11.74 84.1 11.9 87 16
2003-09-02 07:37:41 51°22.4 3°12.04 70.1 12.2 64 15.7
2003-09-02 07:38:41 51°22.46 3°12.35 81.8 12.5 80 14.7
2003-09-02 07:39:41 51°22.5 3°12.68 85.4 12.4 85 13.7
2003-09-02 07:40:41 51°22.52 3°13.01 85.5 12.5 78 13.4
2003-09-02 07:41:41 51°22.57 3°13.33 85.4 12.9 81 12.4
2003-09-02 07:42:41 51°22.62 3°13.65 81.7 12 75 11.4
2003-09-02 07:43:41 51°22.66 3°13.97 84 11.9 79 10.5
2003-09-02 07:44:41 51°22.71 3°14.28 82.1 11.7 78 9.9
2003-09-02 07:45:41 51°22.77 3°14.57 76.1 8.5 66 10
2003-09-02 07:46:41 51°22.82 3°14.7 68.2 4.3 54 9.7
2003-09-02 07:47:41 51°22.83 3°14.78 88.2 2.3 79 9.7
2003-09-02 07:48:41 51°22.84 3°14.82 72.8 1.4 56 9.7
2003-09-02 07:49:41 51°22.85 3°14.83 71.1 0.5 38 9.8
2003-09-02 07:50:41 51°22.86 3°14.84 71.1 0.4 16 9.7
2003-09-02 07:51:41 51°22.87 3°14.84 71.4 0.6 353 9.6
2003-09-02 07:52:41 51°22.88 3°14.83 73.9 0.6 330 9.8
2003-09-02 07:53:41 51°22.88 3°14.83 76.4 0.4 329 9.6
2003-09-02 07:54:41 51°22.89 3°14.82 80.2 0.5 314 9.6
2003-09-02 07:55:41 51°22.89 3°14.81 85.4 0.5 321 9.8
2003-09-02 07:56:41 51°22.89 3°14.8 93.3 0.5 221 9.8
2003-09-02 07:57:41 51°22.88 3°14.8 108.9 0.8 149 9.7
2003-09-02 07:58:41 51°22.86 3°14.8 158.2 2.7 189 9.6
2003-09-02 07:59:41 51°22.8 3°14.73 233 5.1 238 9.7
2003-09-02 08:00:41 51°22.81 3°14.59 305.5 5.5 294 9.5
2003-09-02 08:01:41 51°22.86 3°14.52 17 4.1 350 9.9
2003-09-02 08:02:41 51°22.93 3°14.54 47.3 4 30 10
2003-09-02 08:03:41 51°22.98 3°14.61 61 4 48 9.8
2003-09-02 08:04:41 51°23.03 3°14.69 64.1 4.1 53 9.9
2003-09-02 08:05:41 51°23.05 3°14.77 85.7 2.5 83 9.7
2003-09-02 08:06:41 51°23.06 3°14.82 79.4 1.9 63 9.8
2003-09-02 08:07:41 51°23.07 3°14.86 86.6 1.7 78 9.9
2003-09-02 08:08:41 51°23.07 3°14.91 98.8 1.8 79 9.7
2003-09-02 08:09:41 51°23.07 3°14.95 83.3 1.6 54 9.4
2003-09-02 08:10:41 51°23.08 3°14.98 70.9 1.8 52 9.3
2003-09-02 08:11:41 51°23.09 3°15.03 92.3 1.9 92 9.5
2003-09-02 08:12:41 51°23.09 3°15.08 88.5 2 81 9.4
2003-09-02 08:13:41 51°23.11 3°15.12 70.9 2.1 50 9.3
2003-09-02 08:14:41 51°23.14 3°15.17 72.3 2.1 57 9.3
2003-09-02 08:15:41 51°23.16 3°15.21 72.2 2.2 55 9.2
2003-09-02 08:16:41 51°23.18 3°15.26 82.7 2.1 64 9.3
2003-09-02 08:17:41 51°23.18 3°15.31 92.2 1.9 80 9
2003-09-02 08:18:41 51°23.18 3°15.36 85.8 1.9 71 8.9
2003-09-02 08:19:41 51°23.2 3°15.41 82.3 1.9 68 8.9
2003-09-02 08:20:41 51°23.21 3°15.46 79.3 2 61 8.8
2003-09-02 08:21:41 51°23.22 3°15.51 86.4 2 77 9
2003-09-02 08:22:41 51°23.23 3°15.56 92.7 1.9 94 8.8
2003-09-02 08:23:41 51°23.22 3°15.61 95.8 2 111 8.8
2003-09-02 08:24:41 51°23.23 3°15.66 77.7 1.9 62 8.5
2003-09-02 08:25:41 51°23.24 3°15.7 78.1 1.8 73 8.5
2003-09-02 08:26:41 51°23.26 3°15.75 87 1.9 67 8.4
2003-09-02 08:27:41 51°23.26 3°15.8 87 1.9 74 8.5
2003-09-02 08:28:41 51°23.27 3°15.85 85.2 2 100 8.4
2003-09-02 08:29:41 51°23.28 3°15.89 81.4 1.7 68 8.4
2003-09-02 08:30:41 51°23.29 3°15.94 76.2 1.8 53 8.4
2003-09-02 08:31:41 51°23.31 3°15.98 76.1 1.9 61 8.5
2003-09-02 08:32:41 51°23.31 3°16.02 95.8 1.8 91 8.5
2003-09-02 08:33:41 51°23.3 3°16.06 113 1.3 147 8.2
2003-09-02 08:34:41 51°23.28 3°16.06 125.4 1.9 197 8.2
2003-09-02 08:35:41 51°23.25 3°16.04 154.1 2.2 214 8.3
2003-09-02 08:36:41 51°23.22 3°16 177.9 2.8 225 8.1
2003-09-02 08:37:41 51°23.18 3°15.94 197.6 3 230 8.2
2003-09-02 08:38:41 51°23.16 3°15.86 210.1 3 243 8.4
2003-09-02 08:39:41 51°23.14 3°15.79 212.4 2.9 248 8.3
2003-09-02 08:40:41 51°23.11 3°15.65 272.5 7.8 268 8.4
2003-09-02 08:41:41 51°23.1 3°15.32 271.6 14.6 268 8.3
2003-09-02 08:42:41 51°23.11 3°14.92 285.6 15.4 280 8.7
2003-09-02 08:43:41 51°23.16 3°14.51 285.4 15.8 278 9
2003-09-02 08:44:41 51°23.24 3°14.12 308.2 15.2 300 9.8
2003-09-02 08:45:41 51°23.39 3°13.8 316.5 15 306 10.9
2003-09-02 08:46:41 51°23.55 3°13.49 319.4 14.7 309 10.8
2003-09-02 08:47:41 51°23.7 3°13.19 319.9 14.6 309 10.7
2003-09-02 08:48:41 51°23.85 3°12.89 318.2 14.7 308 11.1
2003-09-02 08:49:41 51°24.01 3°12.61 327.1 14.3 315 12
2003-09-02 08:50:39 51°24.18 3°12.34 327 14.8 314 17
2003-09-02 08:51:41 51°24.31 3°11.99 298.3 15.1 290 18
2003-09-02 08:52:41 51°24.39 3°11.61 296.1 15.1 288 17.7
2003-09-02 08:53:41 51°24.47 3°11.23 297.3 15 288 16
2003-09-02 08:54:41 51°24.51 3°10.84 283.4 15.4 277 13.2
2003-09-02 08:55:41 51°24.54 3°10.44 284.2 15.1 278 11.7
2003-09-02 08:56:41 51°24.58 3°10.04 285.7 15 280 10.3
2003-09-02 08:57:41 51°24.63 3°9.65 291.5 15 285 9.3
2003-09-02 08:58:39 51°24.69 3°9.28 289.7 14.9 283 8.8
2003-09-02 08:59:41 51°24.75 3°8.88 289 14.9 284 8.6
2003-09-02 09:00:39 51°24.81 3°8.51 290.1 15 283 8.3
2003-09-02 09:01:41 51°24.87 3°8.12 294.9 14.7 290 8.3
2003-09-02 09:02:41 51°24.95 3°7.74 294.5 14.7 288 8.2
2003-09-02 09:03:41 51°25.06 3°7.4 314.4 14.1 308 8.2
2003-09-02 09:04:41 51°25.24 3°7.19 353.4 13.7 346 8.6
2003-09-02 09:05:41 51°25.45 3°7.27 43.2 12.6 38 9
2003-09-02 09:06:41 51°25.57 3°7.53 58 12.5 50 9.1
2003-09-02 09:07:41 51°25.7 3°7.79 58.7 12.4 49 8.4
2003-09-02 09:08:41 51°25.84 3°8.04 53.7 12.6 43 8.5
2003-09-02 09:09:41 51°25.99 3°8.28 55.3 12.9 47 9.1
2003-09-02 09:10:39 51°26.13 3°8.52 53.2 12.9 45 9
2003-09-02 09:11:41 51°26.29 3°8.76 52.6 13.1 42 8.7
2003-09-02 09:12:41 51°26.46 3°8.98 50.4 12.7 40 9
2003-09-02 09:13:41 51°26.62 3°9.21 50.3 12.8 39 9.6
2003-09-02 09:14:41 51°26.72 3°9.35 60.8 4.6 43 9.5
2003-09-02 09:15:41 51°26.74 3°9.37 42.5 0.9 324 9.8
2003-09-02 09:16:41 51°26.75 3°9.36 35.7 0.8 320 9.8
2003-09-02 09:17:41 51°26.76 3°9.34 27.7 0.9 314 9.7
2003-09-02 09:18:41 51°26.77 3°9.33 20.5 0.8 309 9.9
2003-09-02 09:19:41 51°26.78 3°9.31 16.6 0.9 321 10.1
2003-09-02 09:20:47 51°26.8 3°9.29 14.6 2.3 347 9.9
2003-09-02 09:21:47 51°26.86 3°9.29 24.2 4.3 8 9.6
2003-09-02 09:22:47 51°26.92 3°9.34 56.8 3.7 48 10
2003-09-02 09:23:47 51°26.96 3°9.42 66.7 3.4 54 9.8
2003-09-02 09:24:47 51°26.98 3°9.47 65.9 2.3 60 9.8
2003-09-02 09:25:47 51°27.01 3°9.52 59.3 2 41 9.9
2003-09-02 09:26:47 51°27.04 3°9.55 51.7 2 38 9.7
2003-09-02 09:27:47 51°27.06 3°9.58 57.5 2 47 10.2
2003-09-02 09:28:51 51°27.09 3°9.63 68 2.2 57 10.1
2003-09-02 09:29:51 51°27.11 3°9.68 65 2.3 55 10.1
2003-09-02 09:30:51 51°27.13 3°9.72 58 2.1 38 10.3
2003-09-02 09:31:51 51°27.16 3°9.76 50 2.3 32 10.2
2003-09-02 09:32:51 51°27.19 3°9.79 53.7 2.4 38 10
2003-09-02 09:33:51 51°27.22 3°9.83 57.4 2.2 54 10.3
2003-09-02 09:34:51 51°27.25 3°9.88 59 2.3 45 10.1
2003-09-02 09:35:51 51°27.28 3°9.92 60.5 2.5 50 10.2
2003-09-02 09:36:53 51°27.3 3°9.97 62.2 2.5 45 10.1
2003-09-02 09:37:53 51°27.33 3°10.02 58.8 2.3 53 10.3
2003-09-02 09:38:53 51°27.36 3°10.06 49.6 2.2 33 10.1
2003-09-02 09:39:53 51°27.39 3°10.09 44.9 2.1 28 10.2
2003-09-02 09:40:53 51°27.42 3°10.11 45.6 2.1 31 10.4
2003-09-02 09:41:55 51°27.45 3°10.14 54.6 1.9 40 10.3
2003-09-02 09:42:57 51°27.47 3°10.18 64.3 1.9 57 10.3
2003-09-02 09:43:55 51°27.49 3°10.22 63.6 2 49 10.2
2003-09-02 09:44:55 51°27.52 3°10.26 61.4 2 59 10.2
2003-09-02 09:45:55 51°27.54 3°10.3 58.5 2.1 41 10.3
2003-09-02 09:46:57 51°27.57 3°10.34 57.7 2 53 10.4
2003-09-02 09:47:57 51°27.59 3°10.38 58.3 1.6 52 10
2003-09-02 09:48:55 51°27.61 3°10.4 59.8 1 46 10.4
2003-09-02 09:49:55 51°27.62 3°10.41 56.7 0.8 20 10.1
2003-09-02 09:50:57 51°27.63 3°10.41 53.7 0.6 342 9.9
2003-09-02 09:51:57 51°27.64 3°10.41 47.2 0.6 321 10.2
2003-09-02 09:52:55 51°27.64 3°10.4 43.4 0.6 283 10.2
2003-09-02 09:53:57 51°27.64 3°10.38 41.2 0.7 276 10.3
2003-09-02 09:54:57 51°27.64 3°10.36 41.2 0.5 323 10.1
2003-09-02 09:55:55 51°27.69 3°10.35 347.7 5.2 327 10.3
2003-09-02 09:56:55 51°27.77 3°10.16 306.1 12.7 298 10.9
2003-09-02 09:57:57 51°27.88 3°9.82 304.1 13.8 297 11.1
2003-09-02 09:58:57 51°27.97 3°9.48 296.5 14 289 11.7
2003-09-02 09:59:55 51°28.04 3°9.13 293.1 14.2 287 12.7
2003-09-02 10:00:55 51°28.11 3°8.77 293.2 14.2 287 12.9
2003-09-02 10:01:55 51°28.18 3°8.41 294.4 14.1 288 12.7
2003-09-02 10:02:55 51°28.25 3°8.05 293.7 14.1 288 12.2
2003-09-02 10:03:55 51°28.32 3°7.69 294.1 14.2 288 14.1
2003-09-02 10:04:57 51°28.39 3°7.32 294.3 14.1 288 14.5
2003-09-02 10:05:57 51°28.47 3°6.97 294.3 14.1 288 14.9
2003-09-02 10:06:57 51°28.54 3°6.61 298.8 14.2 294 14.8
2003-09-02 10:07:55 51°28.65 3°6.29 303.7 14 296 16
2003-09-02 10:08:57 51°28.75 3°5.94 304.7 14 297 16.1
2003-09-02 10:09:57 51°28.85 3°5.61 303.6 13.9 296 17.8
2003-09-02 10:10:57 51°28.96 3°5.27 303.1 14 294 19.7
2003-09-02 10:11:57 51°29.05 3°4.93 303.3 14 295 21.8
2003-09-02 10:12:57 51°29.15 3°4.59 303.5 14 293 22.5
2003-09-02 10:13:57 51°29.24 3°4.26 303.4 13.9 294 22.7
2003-09-02 10:14:57 51°29.34 3°3.91 303.4 14.1 294 22.9
2003-09-02 10:15:57 51°29.44 3°3.57 303.4 14 295 22
2003-09-02 10:16:57 51°29.53 3°3.23 302.7 14.1 293 21.9
2003-09-02 10:17:57 51°29.62 3°2.89 303.8 13.9 294 23
2003-09-02 10:18:57 51°29.71 3°2.55 302.8 13.5 294 23.3
2003-09-02 10:19:55 51°29.8 3°2.23 303.4 13.5 294 24.2
2003-09-02 10:20:57 51°29.89 3°1.89 307.5 13.5 298 25.8
2003-09-02 10:21:57 51°30 3°1.58 308.4 13.4 299 27.4
2003-09-02 10:22:55 51°30.1 3°1.27 306.5 13.6 297 27.6
2003-09-02 10:23:57 51°30.21 3°0.93 306.3 13.6 297 27.3
2003-09-02 10:24:57 51°30.31 3°0.6 305.9 13.9 297 27.2
2003-09-02 10:25:57 51°30.41 3°0.27 305.8 13.9 294 26.2
2003-09-02 10:26:57 51°30.51 2°59.94 307.9 13.7 296 26.1
2003-09-02 10:27:55 51°30.61 2°59.62 306.6 13.7 297 25.2
2003-09-02 10:28:57 51°30.71 2°59.28 306.4 13.7 296 26.6
2003-09-02 10:29:57 51°30.81 2°58.95 306.1 13.7 296 26.7
2003-09-02 10:30:57 51°30.9 2°58.62 306.9 13.7 295 27.3
2003-09-02 10:31:57 51°31 2°58.29 304.9 13.7 295 29
2003-09-02 10:32:57 51°31.1 2°57.96 305.5 13.6 296 28.9
2003-09-02 10:33:57 51°31.19 2°57.62 305.5 13.9 294 30
2003-09-02 10:34:57 51°31.29 2°57.29 306.9 13.9 293 32.4
2003-09-02 10:35:55 51°31.38 2°56.96 306 14 294 31.8
2003-09-02 10:36:57 51°31.49 2°56.62 306.8 13.7 296 22.6
2003-09-02 10:37:57 51°31.58 2°56.29 305.5 13.3 298 16.6
2003-09-02 10:38:57 51°31.68 2°55.96 305.3 13.6 290 17.3
2003-09-02 10:39:57 51°31.76 2°55.63 304.7 13.7 292 19.4
2003-09-02 10:40:57 51°31.84 2°55.29 301.4 12.5 287 19.8
2003-09-02 10:41:57 51°31.92 2°55.08 331.3 6.1 317 19.3
2003-09-02 10:42:57 51°31.95 2°55.02 5 1.6 235 20.4
2003-09-02 10:43:57 51°31.94 2°54.99 12.8 1.4 224 -999
2003-09-02 10:44:57 51°31.92 2°54.97 11 1.2 232 -999
2003-09-02 10:45:57 51°31.91 2°54.94 8.3 1.1 233 -999
2003-09-02 10:46:57 51°31.9 2°54.91 12.3 1.1 232 19.9
2003-09-02 10:47:57 51°31.89 2°54.88 14.5 1.2 234 -999
2003-09-02 10:48:57 51°31.88 2°54.86 17.2 1.1 242 20.3
2003-09-02 10:49:57 51°31.87 2°54.84 29.9 0.7 220 21.1
2003-09-02 10:50:57 51°31.86 2°54.84 39.7 0.1 150 20.8
2003-09-02 10:51:57 51°31.88 2°54.87 47.5 2.2 48 19.8
2003-09-02 10:52:57 51°31.91 2°54.93 57.6 3 62 20.8
2003-09-02 10:53:57 51°31.94 2°55 51.5 3.4 55 20.4
2003-09-02 10:54:55 51°31.97 2°55.07 58.1 3.4 62 20.5
2003-09-02 10:55:57 51°31.99 2°55.16 58.2 3.1 63 18.8
2003-09-02 10:56:55 51°32.01 2°55.21 52.6 2.1 59 21.6
2003-09-02 10:57:57 51°32.03 2°55.26 52.1 2 62 20.9
2003-09-02 10:58:57 51°32.04 2°55.31 49.2 1.9 50 20.1
2003-09-02 10:59:57 51°32.06 2°55.35 45.5 1.9 45 21.9
2003-09-02 11:00:57 51°32.09 2°55.38 42.8 2 45 20.1
2003-09-02 11:01:57 51°32.11 2°55.42 47.2 2.1 57 21
2003-09-02 11:02:57 51°32.13 2°55.46 56.3 2.1 67 20.6
2003-09-02 11:03:57 51°32.14 2°55.52 64 2.2 83 18.8
2003-09-02 11:04:57 51°32.15 2°55.57 58.4 2.1 75 20.4
2003-09-02 11:05:57 51°32.16 2°55.62 58.1 2 67 20.7
2003-09-02 11:06:57 51°32.17 2°55.68 56.1 2.2 67 17.4
2003-09-02 11:07:57 51°32.18 2°55.73 55 2.2 75 21.2
2003-09-02 11:08:57 51°32.2 2°55.78 56 2 71 22.1
2003-09-02 11:09:57 51°32.21 2°55.83 55.5 2.1 68 20.4
2003-09-02 11:10:57 51°32.22 2°55.89 56.1 2 67 19.6
2003-09-02 11:11:57 51°32.23 2°55.93 53.2 1.8 65 22.1
2003-09-02 11:12:57 51°32.25 2°55.98 54.2 1.8 70 22.2
2003-09-02 11:13:57 51°32.26 2°56.02 50.1 1.6 57 22.2
2003-09-02 11:14:57 51°32.27 2°56.06 47.9 1.9 52 20.2
2003-09-02 11:15:57 51°32.29 2°56.1 47.9 1.4 66 22.2
2003-09-02 11:16:57 51°32.29 2°56.12 61.9 0.9 125 21.7
2003-09-02 11:17:57 51°32.27 2°56.14 74.9 1.2 141 21.6
2003-09-02 11:18:57 51°32.25 2°56.17 87 1.8 152 21.3
2003-09-02 11:19:57 51°32.23 2°56.19 90.1 1.7 162 21.3
2003-09-02 11:20:57 51°32.2 2°56.19 90.5 1.6 180 19.9
2003-09-02 11:21:57 51°32.17 2°56.19 90.6 1.9 186 19
2003-09-02 11:22:57 51°32.14 2°56.18 93.5 1.9 191 21
2003-09-02 11:23:57 51°32.11 2°56.17 95.5 2.2 190 21.2
2003-09-02 11:24:57 51°32.08 2°56.21 105.7 4.6 125 19.9
2003-09-02 11:25:57 51°31.97 2°56.28 169.4 10.5 182 19.4
2003-09-02 11:26:57 51°31.77 2°56.14 206.8 13.7 203 19
2003-09-02 11:27:57 51°31.54 2°56 207.8 15.1 210 14.7
2003-09-02 11:28:55 51°31.33 2°55.81 210.8 15 206 18.1
2003-09-02 11:29:57 51°31.1 2°55.62 212.1 15.3 206 19.9
2003-09-02 11:30:57 51°30.88 2°55.42 209.4 14.9 210 30.7
2003-09-02 11:31:57 51°30.67 2°55.22 210 14.8 206 37
2003-09-02 11:32:57 51°30.45 2°55.02 209 14.8 211 35.2
2003-09-02 11:33:57 51°30.24 2°54.81 211.2 14.5 213 34.1
2003-09-02 11:34:57 51°30.02 2°54.6 211.1 15.3 213 32.5
2003-09-02 11:35:57 51°29.8 2°54.4 209.9 15.1 212 31.2
2003-09-02 11:36:57 51°29.59 2°54.19 210.8 15.1 209 29.1
2003-09-02 11:37:57 51°29.37 2°53.99 207.5 15.6 211 28
2003-09-02 11:38:57 51°29.15 2°53.78 210.7 15.5 209 27.4
2003-09-02 11:39:57 51°28.92 2°53.59 207.8 15.3 207 26.4
2003-09-02 11:40:57 51°28.69 2°53.4 206.6 15.7 208 24.9
2003-09-02 11:41:57 51°28.46 2°53.21 206.1 15.9 206 23.8
2003-09-02 11:42:57 51°28.23 2°53.03 206.3 15.9 209 21.9
2003-09-02 11:43:57 51°28 2°52.84 206.1 15.6 205 21.1
2003-09-02 11:44:57 51°27.77 2°52.66 206.4 15.1 206 20.5
2003-09-02 11:45:57 51°27.54 2°52.5 201.2 16 202 21.3
2003-09-02 11:46:57 51°27.3 2°52.34 199.9 15.5 202 19.4
2003-09-02 11:47:57 51°27.07 2°52.2 200.7 14.9 201 20.9
2003-09-02 11:48:57 51°26.84 2°52.06 198.9 14.4 202 26
2003-09-02 11:49:57 51°26.61 2°51.93 200.4 15 201 27.2
2003-09-02 11:50:57 51°26.37 2°51.8 197.4 15 201 26.5
2003-09-02 11:51:57 51°26.14 2°51.67 198.3 15.3 199 26.9
2003-09-02 11:52:57 51°25.91 2°51.53 200.5 15.3 200 25.5
2003-09-02 11:53:57 51°25.67 2°51.39 201.9 15.6 201 22.8
2003-09-02 11:54:57 51°25.44 2°51.24 199.1 14.8 200 22.9
2003-09-02 11:55:57 51°25.2 2°51.09 198.3 14.7 201 22.9
2003-09-02 11:56:57 51°24.96 2°50.95 198.7 15.2 201 22.6
2003-09-02 11:57:57 51°24.73 2°50.8 197.9 15.3 204 22.6
2003-09-02 11:58:57 51°24.49 2°50.65 200.4 15.3 201 22.5
2003-09-02 11:59:57 51°24.25 2°50.51 198.9 15.4 200 21.7
2003-09-02 12:00:57 51°24.02 2°50.37 200.9 15.2 203 22.1
2003-09-02 12:01:57 51°23.78 2°50.23 197.5 15.2 199 21.2
2003-09-02 12:02:57 51°23.54 2°50.09 199.7 15.1 200 20
2003-09-02 12:03:57 51°23.31 2°49.95 201.3 14.8 200 17.9
2003-09-02 12:04:57 51°23.07 2°49.82 201.3 14.5 199 16.8
2003-09-02 12:05:55 51°22.85 2°49.7 199.1 15.5 200 16.8
2003-09-02 12:06:57 51°22.6 2°49.56 199.1 15.1 199 16.7
2003-09-02 12:07:55 51°22.38 2°49.43 200 15.1 198 21.4
2003-09-02 12:08:57 51°22.14 2°49.3 197.7 14.2 202 23.5
2003-09-02 12:09:57 51°21.91 2°49.16 200.7 15 200 23.2
2003-09-02 12:10:57 51°21.67 2°49.03 200 14.8 201 22.8
2003-09-02 12:11:55 51°21.45 2°48.9 200.5 14.8 204 21.4
2003-09-02 12:12:57 51°21.29 2°48.84 172.8 6.6 181 21.1
2003-09-02 12:13:57 51°21.24 2°48.82 150.2 1.8 218 21
2003-09-02 12:14:57 51°21.21 2°48.79 140.3 1.8 208 21
2003-09-02 12:15:57 51°21.19 2°48.77 132 1.8 201 20.8
2003-09-02 12:16:57 51°21.16 2°48.76 122.1 1.6 196 20.9
2003-09-02 12:17:55 51°21.14 2°48.75 114.2 1.5 193 20.9
2003-09-02 12:18:57 51°21.11 2°48.74 108.8 1.5 188 20.8
2003-09-02 12:19:57 51°21.09 2°48.73 103.3 1.3 189 20.7
2003-09-02 12:20:57 51°21.07 2°48.73 98.5 1.1 188 20.8
2003-09-02 12:21:57 51°21.04 2°48.74 99.6 1.9 137 21.2
2003-09-02 12:22:57 51°20.99 2°48.77 165.9 4.7 185 20.9
2003-09-02 12:23:57 51°20.92 2°48.66 261.7 6.4 258 20.8
2003-09-02 12:24:57 51°20.96 2°48.55 358.7 4 346 20.8
2003-09-02 12:25:57 51°21 2°48.56 41.6 2 27 20.8
2003-09-02 12:26:55 51°21.02 2°48.6 63.9 1.9 76 20.9
2003-09-02 12:27:57 51°21.02 2°48.65 65.8 1.8 76 21
2003-09-02 12:28:57 51°21.03 2°48.69 64 1.8 67 21.2
2003-09-02 12:29:57 51°21.04 2°48.74 68.6 1.9 81 20.7
2003-09-02 12:30:57 51°21.04 2°48.79 72.5 2 83 21
2003-09-02 12:31:57 51°21.05 2°48.85 65.1 1.9 76 21.5
2003-09-02 12:32:57 51°21.06 2°48.88 50.1 1.7 48 21.5
2003-09-02 12:33:57 51°21.08 2°48.91 37.3 1.8 22 21.4
2003-09-02 12:34:57 51°21.11 2°48.93 57 1.9 61 21.2
2003-09-02 12:35:57 51°21.12 2°48.98 54.2 1.8 54 20.2
2003-09-02 12:36:57 51°21.14 2°49.01 48.2 1.9 46 21.6
2003-09-02 12:37:57 51°21.17 2°49.05 48.6 2.3 41 21.9
2003-09-02 12:38:57 51°21.2 2°49.09 52.2 2.5 52 21.9
2003-09-02 12:39:57 51°21.22 2°49.15 57.3 2.7 58 22.2
2003-09-02 12:40:57 51°21.24 2°49.22 65.9 2.9 74 22.5
2003-09-02 12:41:57 51°21.25 2°49.29 73.6 2.9 85 22.2
2003-09-02 12:42:57 51°21.25 2°49.37 69.8 2.7 79 22
2003-09-02 12:43:57 51°21.26 2°49.45 73.3 3 81 22.9
2003-09-02 12:44:57 51°21.27 2°49.52 75.4 2.8 85 22.5
2003-09-02 12:45:57 51°21.27 2°49.59 76.7 2.5 89 22.5
2003-09-02 12:46:57 51°21.27 2°49.65 71.2 2.2 83 22.5
2003-09-02 12:47:57 51°21.28 2°49.71 65.9 2 75 22.4
2003-09-02 12:48:57 51°21.29 2°49.75 62.4 1.9 69 22.7
2003-09-02 12:49:57 51°21.3 2°49.8 57.2 1.9 60 22.7
2003-09-02 12:50:57 51°21.32 2°49.84 49 1.9 45 22.9
2003-09-02 12:51:57 51°21.34 2°49.87 46.3 1.5 37 22.6
2003-09-02 12:52:57 51°21.35 2°49.89 65.5 0.9 107 22.5
2003-09-02 12:53:57 51°21.34 2°49.91 77.2 0.9 137 22.9
2003-09-02 12:54:57 51°21.33 2°49.92 83.1 0.8 144 23
2003-09-02 12:55:57 51°21.32 2°49.94 84.2 1 149 23
2003-09-02 12:56:57 51°21.3 2°49.95 82.3 1.1 168 23.6
2003-09-02 12:57:57 51°21.29 2°49.95 81.5 0.9 188 23.1
2003-09-02 12:58:57 51°21.27 2°49.94 82.1 1.1 196 23.1
2003-09-02 12:59:57 51°21.25 2°49.93 81 1 204 23.2
2003-09-02 13:00:57 51°21.24 2°49.95 85.3 2.1 107 23.1
2003-09-02 13:01:57 51°21.19 2°50.03 146.8 6.5 161 23.8
2003-09-02 13:02:57 51°21.05 2°50.02 180.8 11.5 184 23.7
2003-09-02 13:03:57 51°20.82 2°50.02 167.4 14.3 165 23.3
2003-09-02 13:04:57 51°20.6 2°50.14 156.7 14 157 22
2003-09-02 13:05:57 51°20.38 2°50.27 154.5 13.6 157 18.9
2003-09-02 13:06:57 51°20.16 2°50.4 158.9 13.9 161 16.4
2003-09-02 13:07:57 51°19.94 2°50.53 158.9 13.4 160 14.5
2003-09-02 13:08:57 51°19.72 2°50.66 155.5 13.8 161 12.2
2003-09-02 13:09:57 51°19.51 2°50.79 160.5 14.3 159 13
2003-09-02 13:10:57 51°19.29 2°50.91 158.9 14.7 165 14.6
2003-09-02 13:11:57 51°19.06 2°51.03 157.1 14.3 159 15.3
2003-09-02 13:12:57 51°18.84 2°51.17 153 14 159 15
2003-09-02 13:13:57 51°18.63 2°51.32 153.8 13.9 157 14.4
2003-09-02 13:14:57 51°18.41 2°51.46 156.7 14.6 157 13.1
2003-09-02 13:15:57 51°18.2 2°51.61 155.4 14.5 156 12.1
2003-09-02 13:16:57 51°17.99 2°51.76 155.3 14.1 156 10.9
2003-09-02 13:17:57 51°17.78 2°51.93 152 13.8 153 10.7
2003-09-02 13:18:57 51°17.57 2°52.11 150.9 14.7 151 10.6
2003-09-02 13:19:57 51°17.36 2°52.29 151.1 14.2 150 10.9
2003-09-02 13:20:57 51°17.18 2°52.52 128.7 13.5 128 10.4
2003-09-02 13:21:57 51°17.07 2°52.76 121.8 8.8 125 10.7
2003-09-02 13:22:57 51°17.03 2°52.91 98.5 4.4 104 9.9
2003-09-02 13:23:57 51°17.02 2°52.97 69 1.1 134 9.7
2003-09-02 13:24:57 51°17.01 2°52.98 53 0.5 148 9.4
2003-09-02 13:25:57 51°17 2°52.99 49.3 0.6 162 9.4
2003-09-02 13:26:57 51°16.99 2°52.99 50.5 0.5 196 9.3
2003-09-02 13:27:57 51°16.98 2°52.99 52.7 0.7 182 9.3
2003-09-02 13:28:57 51°16.97 2°52.99 56 0.8 173 9.4
2003-09-02 13:29:57 51°16.97 2°53.03 63.8 3 73 9.2
2003-09-02 13:30:57 51°16.98 2°53.14 75.5 4.9 87 9
2003-09-02 13:31:57 51°16.98 2°53.27 86.3 5 87 8.9
2003-09-02 13:32:57 51°16.98 2°53.38 82.8 3.6 89 8.8
2003-09-02 13:33:57 51°16.97 2°53.46 93.7 3 106 9
2003-09-02 13:34:57 51°16.95 2°53.53 94 2.7 108 10.3
2003-09-02 13:35:57 51°16.94 2°53.6 83.6 2.3 96 11.1
2003-09-02 13:36:57 51°16.94 2°53.66 75.8 2.1 89 11.5
2003-09-02 13:37:57 51°16.94 2°53.72 75 2.1 88 11.5
2003-09-02 13:38:57 51°16.94 2°53.77 79.1 2.2 91 11.7
2003-09-02 13:40:03 51°16.93 2°53.84 87 2.5 103 12
2003-09-02 13:41:03 51°16.92 2°53.91 79 2.4 87 11.8
2003-09-02 13:42:03 51°16.93 2°53.97 69.5 2.3 78 12
2003-09-02 13:43:03 51°16.94 2°54.03 60.9 2.1 62 12
2003-09-02 13:44:09 51°16.95 2°54.09 59.5 2.2 72 11.9
2003-09-02 13:45:09 51°16.96 2°54.15 64.9 2.3 74 11.8
2003-09-02 13:46:09 51°16.97 2°54.21 70.1 2.5 79 12.2
2003-09-02 13:47:09 51°16.98 2°54.28 73 2.5 80 12.3
2003-09-02 13:48:09 51°16.98 2°54.34 76.9 2.5 82 12
2003-09-02 13:49:09 51°16.98 2°54.41 72.8 2.4 79 12
2003-09-02 13:50:09 51°16.99 2°54.47 67.1 2.4 70 12.3
2003-09-02 13:51:09 51°17.01 2°54.53 63.9 2.4 72 12.1
2003-09-02 13:52:09 51°17.02 2°54.59 62.3 2.3 76 12
2003-09-02 13:53:13 51°17.03 2°54.65 59.6 2 66 12.1
2003-09-02 13:54:11 51°17.04 2°54.7 58 2 62 12.2
2003-09-02 13:55:19 51°17.05 2°54.75 58.4 1.6 77 12.2
2003-09-02 13:56:19 51°17.06 2°54.79 67.6 1.2 90 12.2
2003-09-02 13:57:19 51°17.06 2°54.82 82.8 1.3 112 12.1
2003-09-02 13:58:19 51°17.05 2°54.89 100.1 4.7 107 12.5
2003-09-02 13:59:19 51°16.99 2°55.02 136.1 6.6 140 12.5
2003-09-02 14:00:19 51°16.92 2°55.07 170.9 3.7 171 12.5
2003-09-02 14:01:19 51°16.86 2°55.06 186.5 2.9 187 12.9
2003-09-02 14:02:19 51°16.82 2°55.05 191.9 2.5 190 12.6
2003-09-02 14:03:19 51°16.78 2°55.04 191.9 2.1 193 12.6
2003-09-02 14:04:19 51°16.73 2°55.02 195.6 7.1 195 12.5
2003-09-02 14:05:19 51°16.53 2°54.96 192.5 13.7 193 12.1
2003-09-02 14:06:19 51°16.32 2°54.86 199.6 13.7 196 11.8
2003-09-02 14:07:19 51°16.09 2°54.77 202.1 13.7 200 12
2003-09-02 14:08:19 51°15.87 2°54.67 194.2 14 189 11.3
2003-09-02 14:09:19 51°15.65 2°54.67 180.3 13.7 176 10.8
2003-09-02 14:10:19 51°15.42 2°54.72 174.2 13.8 171 10.2
2003-09-02 14:11:19 51°15.2 2°54.78 171.4 13.5 167 9.5
2003-09-02 14:12:19 51°14.98 2°54.86 172.3 13.7 170 10.1
2003-09-02 14:13:19 51°14.76 2°54.93 174 13.4 169 10.5
2003-09-02 14:14:19 51°14.54 2°55.01 172 13.1 165 10.8
2003-09-02 14:15:19 51°14.34 2°55.14 150.2 11.8 141 11.2
2003-09-02 14:16:19 51°14.22 2°55.33 143.7 8.9 141 12.4
2003-09-02 14:17:19 51°14.12 2°55.44 156.2 6.3 152 12.2
2003-09-02 14:18:19 51°14.03 2°55.5 161.8 6.2 157 12.4
2003-09-02 14:19:19 51°13.93 2°55.56 162.5 6.2 159 12.5
2003-09-02 14:20:23 51°13.83 2°55.63 158.2 6.1 155 -999
2003-09-02 14:21:23 51°13.75 2°55.72 136 5.9 132 -999
2003-09-02 14:22:23 51°13.69 2°55.85 129.5 5.8 124 -999
2003-09-02 14:23:23 51°13.64 2°55.96 128.4 4.9 123 -999
2003-09-02 14:24:23 51°13.61 2°56.07 113.5 3.6 112 -999
2003-09-02 14:25:23 51°13.6 2°56.11 130.9 0.6 123 -999